Time;durP1;ratioP1;P1;durP2;ratioP2;P2;SDS_P1;SDS_P2;PMS_P1;PMS_P2;Temp;Humidity;BMP_temperature;BMP_pressure;BME280_temperature;BME280_humidity;BME280_pressure;Samples;Min_cycle;Max_cycle;Signal;HPM_P1;HPM_P2
2022/01/26 00:07:33;;;;;;;;;49.25;38.50;;;;;5.03;60.82;102961.91;5055946;28;46289;-49
2022/01/26 00:09:58;;;;;;;;;53.25;40.75;;;;;5.05;60.88;102970.72;5061138;28;45501;-50
2022/01/26 00:12:23;;;;;;;;;49.25;39.50;;;;;5.01;60.84;102964.47;5062065;28;45446;-50
2022/01/26 00:14:49;;;;;;;;;36.50;34.00;;;;;5.00;60.91;102967.88;5060828;28;46442;-52
2022/01/26 00:17:15;;;;;;;;;31.25;28.00;;;;;4.95;60.85;102966.78;5094255;27;45312;-50
2022/01/26 00:19:59;;;;;;;;;37.50;31.25;;;;;4.94;60.66;102966.72;5094321;27;48082;-52
2022/01/26 00:22:43;;;;;;;;;46.50;34.50;;;;;4.90;60.78;102967.44;5086778;27;45512;-52
2022/01/26 00:38:32;;;;;;;;;44.25;35.50;;;;;4.84;60.57;102966.34;5061400;28;45296;-50
2022/01/26 00:38:43;;;;;;;;;38.00;31.25;;;;;4.80;60.71;102969.59;5056299;28;45390;-52
2022/01/26 00:41:18;;;;;;;;;43.50;33.25;;;;;4.77;60.54;102977.28;5060848;28;47293;-51
2022/01/26 00:43:50;;;;;;;;;40.75;33.25;;;;;4.75;60.80;102976.31;5061709;28;45449;-52
2022/01/26 00:46:17;;;;;;;;;40.50;35.25;;;;;4.74;60.86;102984.06;5061291;28;45410;-52
2022/01/26 00:48:43;;;;;;;;;38.00;34.00;;;;;4.73;60.87;102980.59;5060400;28;45173;-51
2022/01/26 00:51:10;;;;;;;;;37.25;31.75;;;;;4.70;60.57;102972.63;5060965;28;46979;-50
2022/01/26 00:53:41;;;;;;;;;40.50;33.75;;;;;4.69;60.83;102979.53;5061510;28;45224;-50
2022/01/26 00:56:06;;;;;;;;;35.50;33.25;;;;;4.63;60.42;102973.13;5060800;28;45343;-50
2022/01/26 00:58:33;;;;;;;;;32.75;30.00;;;;;4.63;60.59;102981.88;5060961;28;45431;-50
2022/01/26 01:01:01;;;;;;;;;37.50;35.50;;;;;4.62;60.56;102990.50;5060228;28;46539;-52
2022/01/26 01:03:28;;;;;;;;;47.00;39.25;;;;;4.62;60.52;102981.81;5061175;28;45355;-50
2022/01/26 01:05:59;;;;;;;;;50.50;40.00;;;;;4.59;60.60;102984.25;5090357;27;45512;-53
2022/01/26 01:08:26;;;;;;;;;45.00;35.50;;;;;4.59;60.39;102984.25;5093904;27;46195;-49
2022/01/26 01:10:56;;;;;;;;;40.75;35.50;;;;;4.55;60.73;102983.22;5059865;28;46088;-52
2022/01/26 01:13:32;;;;;;;;;33.75;31.00;;;;;4.53;60.32;102977.94;5054797;28;45277;-52
2022/01/26 01:15:58;;;;;;;;;42.75;34.50;;;;;4.50;60.24;102975.22;5060713;27;45349;-52
2022/01/26 01:18:42;;;;;;;;;29.00;27.00;;;;;4.50;60.51;102974.28;5060865;28;45549;-52
2022/01/26 01:32:01;;;;;;;;;35.00;28.25;;;;;4.43;60.76;102973.13;5060339;28;45395;-52
2022/01/26 01:33:59;;;;;;;;;36.50;31.25;;;;;4.43;60.52;102980.03;5052791;28;45311;-53
2022/01/26 01:36:24;;;;;;;;;31.50;27.50;;;;;4.43;60.25;102982.63;5076553;28;45339;-52
2022/01/26 01:38:50;;;;;;;;;36.25;32.00;;;;;4.42;60.26;102989.56;5060572;28;45323;-51
2022/01/26 01:41:15;;;;;;;;;34.50;32.00;;;;;4.43;60.40;102987.84;5059878;28;46109;-49
2022/01/26 01:43:40;;;;;;;;;38.50;32.25;;;;;4.40;60.24;102986.00;5060189;28;45540;-51
2022/01/26 01:46:06;;;;;;;;;36.75;32.00;;;;;4.38;60.51;102978.09;5058802;28;45403;-53
2022/01/26 01:48:33;;;;;;;;;35.50;32.00;;;;;4.35;60.26;102977.97;5059100;28;45285;-51
2022/01/26 01:51:03;;;;;;;;;35.00;31.25;;;;;4.34;60.43;102985.69;5057295;28;46522;-53
2022/01/26 01:53:35;;;;;;;;;38.50;33.25;;;;;4.34;60.67;102985.69;5057356;28;46485;-49
2022/01/26 01:56:01;;;;;;;;;36.25;28.75;;;;;4.32;60.37;102990.84;5056824;28;45474;-52
2022/01/26 01:58:27;;;;;;;;;40.25;32.25;;;;;4.31;60.46;103002.06;5058571;28;45514;-51
2022/01/26 02:00:53;;;;;;;;;35.75;29.25;;;;;4.30;60.75;103002.00;5057189;28;45723;-48
2022/01/26 02:03:18;;;;;;;;;35.50;32.50;;;;;4.30;60.39;103008.13;5058799;28;45490;-53
2022/01/26 02:05:44;;;;;;;;;35.25;31.50;;;;;4.31;60.42;102998.56;5058755;28;45404;-52
2022/01/26 02:08:09;;;;;;;;;36.50;30.00;;;;;4.30;60.67;103002.00;5058356;28;45317;-53
2022/01/26 02:10:35;;;;;;;;;28.50;27.25;;;;;4.29;60.42;102998.50;5059360;28;45433;-49
2022/01/26 02:13:15;;;;;;;;;31.25;30.00;;;;;4.29;60.46;103006.31;5092199;27;45355;-51
2022/01/26 02:15:48;;;;;;;;;34.50;29.00;;;;;4.30;60.44;103002.00;5055012;28;45232;-51
2022/01/26 02:18:45;;;;;;;;;31.75;27.75;;;;;4.30;60.48;103002.91;5059586;28;45667;-50
2022/01/26 02:56:12;;;;;;;;;28.50;25.50;;;;;4.30;60.15;102975.97;5058973;28;45462;-51
2022/01/26 03:06:31;;;;;;;;;27.75;24.50;;;;;4.32;60.34;102982.16;5050698;28;45600;-51
2022/01/26 03:09:02;;;;;;;;;44.50;30.50;;;;;4.32;60.07;102979.53;5059012;28;45505;-50
2022/01/26 03:11:30;;;;;;;;;35.75;30.00;;;;;4.29;60.48;102977.69;5057467;28;45372;-51
2022/01/26 03:14:06;;;;;;;;;30.50;24.00;;;;;4.33;60.23;102978.72;5055934;28;47189;-51
2022/01/26 03:16:41;;;;;;;;;35.25;25.75;;;;;4.35;60.16;102979.66;5059124;28;45327;-51
2022/01/26 03:19:31;;;;;;;;;41.25;28.25;;;;;4.32;60.20;102969.13;5059008;28;45307;-50
2022/01/26 03:28:04;;;;;;;;;40.25;33.00;;;;;4.35;60.32;102979.66;5058764;28;45378;-52
2022/01/26 03:35:39;;;;;;;;;38.25;29.75;;;;;4.36;60.19;102976.25;5059016;28;45437;-48
2022/01/26 03:38:06;;;;;;;;;40.75;32.50;;;;;4.36;60.46;102965.84;5058573;28;45508;-52
2022/01/26 03:40:32;;;;;;;;;39.50;33.50;;;;;4.34;60.47;102968.38;5058835;28;45748;-52
2022/01/26 03:42:58;;;;;;;;;38.00;27.50;;;;;4.34;60.32;102968.38;5091292;27;45407;-48
2022/01/26 03:45:25;;;;;;;;;33.00;32.75;;;;;4.33;60.13;102965.72;5058843;28;46166;-52
2022/01/26 03:47:51;;;;;;;;;37.75;31.75;;;;;4.33;60.62;102960.50;5058773;28;45432;-51
2022/01/26 03:50:17;;;;;;;;;35.50;30.50;;;;;4.34;60.26;102962.25;5058852;28;45313;-52
2022/01/26 03:52:42;;;;;;;;;42.50;34.75;;;;;4.34;60.20;102965.78;5058974;28;45228;-51
2022/01/26 03:55:08;;;;;;;;;33.50;32.00;;;;;4.35;60.42;102966.66;5058000;28;46065;-52
2022/01/26 03:57:33;;;;;;;;;32.25;27.50;;;;;4.34;60.38;102963.16;5058655;28;45349;-51
2022/01/26 03:59:58;;;;;;;;;37.25;30.25;;;;;4.36;60.44;102971.06;5058350;28;45280;-50
2022/01/26 04:02:24;;;;;;;;;35.25;27.25;;;;;4.36;60.36;102971.94;5058698;28;45241;-49
2022/01/26 04:04:55;;;;;;;;;34.75;29.25;;;;;4.37;60.51;102976.31;5058512;28;45942;-52
2022/01/26 04:07:21;;;;;;;;;34.00;31.25;;;;;4.35;60.42;102967.56;5091127;27;45352;-53
2022/01/26 04:09:46;;;;;;;;;42.75;32.25;;;;;4.39;60.14;102968.59;5090930;27;45388;-52
2022/01/26 04:12:11;;;;;;;;;40.25;27.50;;;;;4.38;60.08;102969.41;5090856;27;45248;-51
2022/01/26 04:14:37;;;;;;;;;38.50;30.50;;;;;4.36;60.66;102966.72;5058502;28;45299;-50
2022/01/26 04:17:03;;;;;;;;;29.50;26.00;;;;;4.39;60.48;102971.22;5057923;28;45297;-50
2022/01/26 04:19:31;;;;;;;;;32.00;29.00;;;;;4.40;60.60;102965.16;5058546;28;45414;-50
2022/01/26 04:22:14;;;;;;;;;33.50;28.25;;;;;4.43;60.21;102967.00;5059386;28;45577;-52
2022/01/26 04:24:45;;;;;;;;;35.25;29.75;;;;;4.42;60.49;102960.91;5061710;28;46991;-53
2022/01/26 04:27:23;;;;;;;;;34.25;27.50;;;;;4.42;60.36;102960.91;5061579;28;45427;-52
2022/01/26 04:29:50;;;;;;;;;37.50;29.25;;;;;4.42;60.12;102960.91;5061674;28;45399;-53
2022/01/26 04:32:16;;;;;;;;;32.75;29.00;;;;;4.44;60.56;102967.09;5094157;27;45406;-50
2022/01/26 04:34:42;;;;;;;;;34.75;30.50;;;;;4.44;60.04;102953.19;5061716;28;47045;-51
2022/01/26 04:39:43;;;;;;;;;39.00;28.75;;;;;4.49;60.31;102959.50;5061540;28;45530;-53
2022/01/26 04:42:14;;;;;;;;;40.75;29.25;;;;;4.47;60.39;102959.41;5061281;28;45283;-52
2022/01/26 04:44:49;;;;;;;;;45.25;36.75;;;;;4.51;60.72;102965.66;5060295;28;46080;-52
2022/01/26 04:47:15;;;;;;;;;32.75;27.25;;;;;4.51;60.30;102956.13;5061199;27;45294;-52
2022/01/26 04:49:40;;;;;;;;;38.25;35.50;;;;;4.51;60.39;102944.84;5061571;28;45178;-53
2022/01/26 04:52:06;;;;;;;;;44.25;33.25;;;;;4.53;60.27;102948.41;5061119;28;45226;-53
2022/01/26 04:54:31;;;;;;;;;37.00;30.50;;;;;4.51;60.21;102955.25;5061378;28;45682;-53
2022/01/26 04:56:57;;;;;;;;;41.00;38.00;;;;;4.52;60.35;102954.44;5060827;28;45383;-52
2022/01/26 04:59:22;;;;;;;;;43.50;35.75;;;;;4.51;60.48;102956.13;5059922;28;45462;-52
2022/01/26 05:01:48;;;;;;;;;40.25;35.25;;;;;4.51;60.36;102958.72;5060106;28;45329;-49
2022/01/26 05:04:13;;;;;;;;;43.50;36.75;;;;;4.53;60.34;102951.91;5059557;28;46987;-49
2022/01/26 05:06:39;;;;;;;;;32.50;26.50;;;;;4.53;60.07;102953.63;5093929;27;45577;-49
2022/01/26 05:09:04;;;;;;;;;43.00;35.00;;;;;4.53;60.22;102949.28;5091715;27;45358;-49
2022/01/26 05:11:35;;;;;;;;;35.75;33.00;;;;;4.55;60.27;102947.66;5058756;28;45411;-48
2022/01/26 05:14:01;;;;;;;;;41.00;33.50;;;;;4.53;60.31;102941.47;5091082;27;47205;-50
2022/01/26 05:16:28;;;;;;;;;44.00;33.75;;;;;4.55;60.25;102946.75;5060935;28;45432;-49
2022/01/26 05:18:54;;;;;;;;;42.50;34.00;;;;;4.56;60.32;102948.53;5060919;28;45443;-48
2022/01/26 05:21:23;;;;;;;;;48.00;35.50;;;;;4.58;59.99;102956.41;5059640;28;45478;-50
2022/01/26 05:23:49;;;;;;;;;42.25;36.50;;;;;4.57;60.25;102947.72;5059380;28;45423;-52
2022/01/26 05:26:15;;;;;;;;;47.75;33.25;;;;;4.59;60.09;102948.69;5060400;28;45201;-52
2022/01/26 05:28:40;;;;;;;;;40.75;36.25;;;;;4.59;60.46;102940.88;5061156;28;45418;-52
2022/01/26 05:31:06;;;;;;;;;47.00;36.25;;;;;4.58;60.32;102939.09;5060547;28;45261;-54
2022/01/26 05:33:31;;;;;;;;;46.25;39.00;;;;;4.61;60.23;102943.56;5092888;27;46945;-52
2022/01/26 05:35:57;;;;;;;;;44.25;36.75;;;;;4.60;60.26;102944.38;5093086;27;45643;-50
2022/01/26 05:38:22;;;;;;;;;42.25;35.50;;;;;4.60;60.04;102939.16;5061067;28;45426;-53
2022/01/26 05:40:47;;;;;;;;;47.75;38.50;;;;;4.61;60.14;102938.34;5093008;27;45482;-52
2022/01/26 05:43:15;;;;;;;;;41.50;35.50;;;;;4.62;60.22;102934.94;5060151;28;45714;-52
2022/01/26 05:45:42;;;;;;;;;45.00;40.00;;;;;4.63;60.38;102923.66;5060491;28;45351;-51
2022/01/26 05:48:11;;;;;;;;;44.25;36.25;;;;;4.64;60.32;102930.66;5060297;28;45500;-51
2022/01/26 05:50:38;;;;;;;;;51.25;39.75;;;;;4.64;60.43;102920.25;5060665;28;45453;-52
2022/01/26 05:53:04;;;;;;;;;37.00;27.75;;;;;4.64;60.30;102918.53;5060075;28;46150;-52
2022/01/26 05:55:29;;;;;;;;;44.25;36.25;;;;;4.64;60.17;102918.53;5060238;28;45517;-51
2022/01/26 05:57:55;;;;;;;;;54.50;37.25;;;;;4.66;60.37;102923.81;5060256;28;45925;-53
2022/01/26 06:00:20;;;;;;;;;44.00;37.00;;;;;4.65;60.33;102928.09;5055710;28;45378;-51
2022/01/26 06:02:46;;;;;;;;;42.00;32.75;;;;;4.65;59.99;102927.22;5060298;28;45372;-53
2022/01/26 06:05:12;;;;;;;;;45.75;37.25;;;;;4.65;60.19;102928.09;5060065;28;45309;-51
2022/01/26 06:07:37;;;;;;;;;51.75;43.75;;;;;4.64;60.16;102920.25;5060264;28;45299;-52
2022/01/26 06:10:03;;;;;;;;;44.50;31.00;;;;;4.65;60.11;102930.72;5059506;28;45225;-52
2022/01/26 06:12:33;;;;;;;;;43.50;35.50;;;;;4.65;60.29;102933.31;5060280;28;45338;-52
2022/01/26 06:14:59;;;;;;;;;44.25;39.50;;;;;4.66;60.28;102937.72;5059661;28;45601;-53
2022/01/26 06:17:24;;;;;;;;;54.50;40.50;;;;;4.66;59.99;102940.31;5059496;28;45373;-52
2022/01/26 06:19:49;;;;;;;;;51.75;41.00;;;;;4.68;60.05;102945.63;5059517;28;45366;-52
2022/01/26 06:22:15;;;;;;;;;48.75;34.00;;;;;4.68;60.16;102948.22;5059101;28;45371;-51
2022/01/26 06:24:40;;;;;;;;;45.00;40.00;;;;;4.68;60.02;102945.63;5059299;28;45412;-53
2022/01/26 06:27:06;;;;;;;;;33.00;25.75;;;;;4.67;59.86;102952.53;5059353;28;45307;-52
2022/01/26 06:29:31;;;;;;;;;51.50;40.75;;;;;4.68;60.02;102954.31;5059363;28;45518;-52
2022/01/26 06:31:57;;;;;;;;;41.50;33.00;;;;;4.68;60.21;102964.75;5091517;27;47017;-52
2022/01/26 06:34:23;;;;;;;;;45.50;36.25;;;;;4.68;60.35;102972.56;5059322;28;45315;-50
2022/01/26 06:36:48;;;;;;;;;54.50;42.50;;;;;4.70;59.96;102977.81;5059486;28;45227;-50
2022/01/26 06:39:14;;;;;;;;;56.50;44.00;;;;;4.71;60.03;102982.22;5057544;28;46430;-51
2022/01/26 06:41:48;;;;;;;;;56.25;41.75;;;;;4.70;60.22;102981.34;5056014;28;46576;-52
2022/01/26 06:44:23;;;;;;;;;56.50;42.00;;;;;4.74;60.35;102990.16;5058906;28;45336;-53
2022/01/26 06:47:00;;;;;;;;;52.00;41.75;;;;;4.72;60.31;102987.50;5058429;28;45594;-52
2022/01/26 06:51:52;;;;;;;;;52.50;40.75;;;;;4.78;60.13;102996.41;5059069;28;45224;-53
2022/01/26 06:54:18;;;;;;;;;59.25;47.75;;;;;4.79;60.08;103006.91;5058579;28;45323;-52
2022/01/26 06:56:45;;;;;;;;;60.00;46.25;;;;;4.81;60.14;103007.84;5059023;28;45457;-51
2022/01/26 06:59:11;;;;;;;;;58.00;45.75;;;;;4.81;60.07;103005.25;5057183;28;45339;-52
2022/01/26 07:01:36;;;;;;;;;61.50;47.00;;;;;4.83;60.17;103001.03;5058804;28;45331;-52
2022/01/26 07:04:02;;;;;;;;;67.50;49.00;;;;;4.85;60.18;103001.09;5057151;28;45328;-53
2022/01/26 07:06:27;;;;;;;;;60.75;45.25;;;;;4.85;60.20;102996.75;5058850;28;45293;-52
2022/01/26 07:08:53;;;;;;;;;65.50;48.75;;;;;4.86;60.15;102995.94;5058612;28;45365;-53
2022/01/26 07:11:18;;;;;;;;;55.75;43.00;;;;;4.88;60.13;103007.31;5057901;28;46014;-50
2022/01/26 07:13:45;;;;;;;;;59.25;47.50;;;;;4.87;60.00;103005.53;5058966;28;45244;-54
2022/01/26 07:21:38;;;;;;;;;56.00;43.50;;;;;4.94;59.97;103011.03;5058760;28;45751;-52
2022/01/26 07:24:04;;;;;;;;;61.75;45.50;;;;;4.94;59.92;103009.31;5058689;28;46406;-50
2022/01/26 07:26:30;;;;;;;;;60.00;47.25;;;;;4.96;59.87;103006.78;5058766;28;45446;-53
2022/01/26 07:29:05;;;;;;;;;62.50;47.25;;;;;4.97;60.10;103001.66;5058469;28;45693;-49
2022/01/26 07:31:33;;;;;;;;;57.00;45.25;;;;;4.99;59.82;103002.63;5058932;28;46331;-51
2022/01/26 07:33:59;;;;;;;;;67.25;48.00;;;;;5.00;59.91;102996.56;5058293;28;45395;-50
2022/01/26 07:36:25;;;;;;;;;62.25;48.50;;;;;5.02;59.77;103000.13;5091591;27;45517;-51
2022/01/26 07:38:53;;;;;;;;;52.50;42.75;;;;;5.04;59.94;103006.31;5058846;28;45519;-50
2022/01/26 07:41:19;;;;;;;;;60.25;47.75;;;;;5.03;59.82;103017.56;5058341;28;46410;-51
2022/01/26 07:43:44;;;;;;;;;60.00;49.00;;;;;5.05;59.88;103022.84;5058849;28;45177;-47
2022/01/26 07:46:10;;;;;;;;;66.00;44.50;;;;;5.08;59.81;103014.25;5058486;28;45653;-47
2022/01/26 07:48:36;;;;;;;;;66.50;46.75;;;;;5.05;59.99;103012.41;5058618;28;45450;-46
2022/01/26 07:51:02;;;;;;;;;64.75;48.00;;;;;5.06;60.00;103016.81;5058108;28;45453;-50
2022/01/26 07:53:28;;;;;;;;;60.50;47.25;;;;;5.07;59.97;103020.28;5059020;28;45517;-50
2022/01/26 07:55:55;;;;;;;;;56.50;44.00;;;;;5.07;59.71;103023.81;5090431;27;45434;-51
2022/01/26 07:58:21;;;;;;;;;60.50;46.25;;;;;5.08;59.82;103020.38;5058513;28;45691;-49
2022/01/26 08:00:47;;;;;;;;;61.75;45.75;;;;;5.12;59.79;103030.13;5061393;28;45505;-47
2022/01/26 08:03:12;;;;;;;;;56.00;44.50;;;;;5.08;59.88;103020.38;5060401;28;45354;-49
2022/01/26 08:05:38;;;;;;;;;60.50;46.50;;;;;5.12;59.89;103034.41;5060733;28;45462;-48
2022/01/26 08:08:03;;;;;;;;;59.50;46.00;;;;;5.13;59.91;103033.59;5061640;28;45216;-48
2022/01/26 08:10:30;;;;;;;;;61.25;47.50;;;;;5.13;59.89;103028.38;5060786;28;45885;-49
2022/01/26 08:12:55;;;;;;;;;53.75;44.75;;;;;5.14;59.95;103038.00;5061876;28;45315;-46
2022/01/26 08:15:21;;;;;;;;;56.00;42.25;;;;;5.17;60.22;103039.03;5061678;28;45866;-51
2022/01/26 08:17:46;;;;;;;;;67.00;48.75;;;;;5.18;59.92;103034.69;5077351;28;45427;-49
2022/01/26 08:20:12;;;;;;;;;66.00;49.00;;;;;5.18;59.72;103027.78;5061491;28;46035;-48
2022/01/26 08:22:37;;;;;;;;;61.00;46.00;;;;;5.18;59.81;103012.16;5061831;28;45314;-49
2022/01/26 08:25:04;;;;;;;;;57.75;44.50;;;;;5.19;59.76;103005.19;5061316;28;45373;-48
2022/01/26 08:27:37;;;;;;;;;54.50;42.00;;;;;5.17;59.87;103007.75;5061777;28;45461;-51
2022/01/26 08:30:08;;;;;;;;;55.75;40.00;;;;;5.19;59.89;103019.16;5061185;28;46150;-47
2022/01/26 08:32:34;;;;;;;;;55.00;40.50;;;;;5.22;59.74;103013.19;5061835;28;45221;-51
2022/01/26 08:34:59;;;;;;;;;58.50;44.00;;;;;5.23;59.54;103014.06;5061538;28;45245;-51
2022/01/26 08:37:25;;;;;;;;;48.25;40.00;;;;;5.20;59.94;103005.25;5061764;28;45323;-48
2022/01/26 08:39:51;;;;;;;;;64.50;47.00;;;;;5.18;59.63;102996.50;5060906;28;45372;-47
2022/01/26 08:42:16;;;;;;;;;59.50;43.00;;;;;5.19;59.68;103003.50;5061380;28;45256;-48
2022/01/26 08:44:41;;;;;;;;;56.50;42.25;;;;;5.19;59.76;103026.06;5055571;28;45605;-48
2022/01/26 08:47:07;;;;;;;;;52.00;42.50;;;;;5.18;59.49;103012.16;5061253;28;45338;-48
2022/01/26 08:49:32;;;;;;;;;55.75;43.25;;;;;5.19;59.73;103008.72;5061295;28;46137;-48
2022/01/26 08:51:58;;;;;;;;;64.00;48.25;;;;;5.18;59.79;103006.03;5061006;28;45390;-49
2022/01/26 08:54:24;;;;;;;;;54.25;44.50;;;;;5.19;59.71;103031.28;5060035;28;45342;-48
2022/01/26 08:56:50;;;;;;;;;63.25;49.25;;;;;5.19;59.83;103024.38;5061206;28;45555;-48
2022/01/26 08:59:17;;;;;;;;;53.00;40.00;;;;;5.23;59.67;103024.47;5060412;28;45541;-48
2022/01/26 09:01:42;;;;;;;;;60.75;46.25;;;;;5.26;59.83;103027.22;5061246;28;45338;-49
2022/01/26 09:04:08;;;;;;;;;60.00;43.25;;;;;5.28;59.74;103020.34;5061068;28;46523;-47
2022/01/26 09:06:38;;;;;;;;;60.00;40.25;;;;;5.29;59.81;103032.56;5093780;27;45548;-49
2022/01/26 09:09:07;;;;;;;;;62.25;46.50;;;;;5.29;59.62;103043.88;5059575;28;47064;-48
2022/01/26 09:11:35;;;;;;;;;62.00;47.00;;;;;5.30;59.81;103035.25;5060075;28;45233;-50
2022/01/26 09:14:00;;;;;;;;;64.50;47.25;;;;;5.28;59.67;103030.78;5058527;28;45411;-47
2022/01/26 09:16:27;;;;;;;;;59.25;45.25;;;;;5.31;59.57;103036.16;5060895;28;45573;-49
2022/01/26 09:18:57;;;;;;;;;57.00;44.00;;;;;5.34;59.62;103039.75;5061004;28;45371;-48
2022/01/26 09:21:24;;;;;;;;;64.25;48.75;;;;;5.36;59.62;103043.34;5060881;28;45367;-50
2022/01/26 09:23:49;;;;;;;;;62.25;46.50;;;;;5.39;59.61;103052.13;5093448;27;45797;-51
2022/01/26 09:26:15;;;;;;;;;66.75;47.00;;;;;5.41;59.72;103059.19;5060382;28;45448;-50
2022/01/26 09:28:40;;;;;;;;;63.25;49.00;;;;;5.43;59.62;103064.47;5093591;27;47538;-49
2022/01/26 09:31:06;;;;;;;;;58.75;42.50;;;;;5.45;59.49;103063.72;5060226;28;45345;-50
2022/01/26 09:33:31;;;;;;;;;57.75;44.00;;;;;5.47;59.57;103072.50;5093758;27;45373;-48
2022/01/26 09:35:57;;;;;;;;;59.00;45.75;;;;;5.48;59.56;103066.44;5060144;28;45497;-47
2022/01/26 09:38:22;;;;;;;;;63.50;50.25;;;;;5.52;59.50;103070.09;5060622;28;45901;-46
2022/01/26 09:40:49;;;;;;;;;63.50;48.00;;;;;5.53;59.45;103072.78;5060090;28;45463;-50
2022/01/26 09:43:16;;;;;;;;;65.00;47.75;;;;;5.54;59.60;103064.13;5060382;28;45311;-47
2022/01/26 09:45:42;;;;;;;;;61.25;46.75;;;;;5.57;59.81;103059.88;5060549;28;45408;-48
2022/01/26 09:48:08;;;;;;;;;63.00;49.50;;;;;5.57;59.44;103065.97;5060143;28;45405;-51
2022/01/26 09:50:34;;;;;;;;;59.25;44.25;;;;;5.58;59.46;103072.09;5060311;28;45220;-47
2022/01/26 09:53:00;;;;;;;;;67.75;48.00;;;;;5.60;59.34;103073.94;5060423;28;46294;-51
2022/01/26 09:55:26;;;;;;;;;61.75;49.50;;;;;5.61;59.43;103082.66;5060255;28;45340;-49
2022/01/26 09:57:58;;;;;;;;;60.75;45.75;;;;;5.61;59.83;103085.25;5060277;28;45366;-48
2022/01/26 10:00:25;;;;;;;;;64.50;48.25;;;;;5.62;59.70;103084.44;5060230;28;45829;-48
2022/01/26 10:02:58;;;;;;;;;63.75;48.00;;;;;5.64;59.49;103090.63;5060343;28;45450;-46
2022/01/26 10:05:24;;;;;;;;;57.00;44.00;;;;;5.62;59.43;103076.59;5060139;28;45309;-51
2022/01/26 10:08:01;;;;;;;;;58.25;45.25;;;;;5.64;59.70;103085.41;5059958;28;45538;-48
2022/01/26 10:16:02;;;;;;;;;59.25;48.00;;;;;5.67;59.68;103078.59;5060935;28;45328;-46
2022/01/26 10:18:31;;;;;;;;;66.50;46.75;;;;;5.69;59.66;103078.66;5061001;28;46144;-47
2022/01/26 10:20:57;;;;;;;;;62.50;48.50;;;;;5.69;59.47;103082.16;5060668;28;45276;-47
2022/01/26 10:23:29;;;;;;;;;58.50;46.00;;;;;5.73;59.44;103080.56;5060792;28;45323;-47
2022/01/26 10:26:13;;;;;;;;;63.50;45.75;;;;;5.77;59.56;103074.66;5060411;28;45146;-49
2022/01/26 10:28:41;;;;;;;;;56.50;43.25;;;;;5.79;59.43;103075.63;5060594;28;46198;-47
2022/01/26 10:31:27;;;;;;;;;60.50;47.75;;;;;5.82;59.32;103091.44;5060428;28;45188;-49
2022/01/26 10:33:57;;;;;;;;;60.50;46.75;;;;;5.84;59.46;103097.59;5060817;28;45358;-48
2022/01/26 10:36:24;;;;;;;;;63.00;43.50;;;;;5.84;59.63;103091.47;5062568;28;45879;-51
2022/01/26 10:39:02;;;;;;;;;55.50;43.50;;;;;5.87;59.60;103070.72;5061852;28;46378;-47
2022/01/26 10:41:27;;;;;;;;;58.50;47.25;;;;;5.88;59.60;103062.06;5052228;28;45406;-49
2022/01/26 10:43:55;;;;;;;;;64.00;46.25;;;;;5.89;59.69;103069.09;5060528;28;45287;-48
2022/01/26 10:46:31;;;;;;;;;60.50;47.25;;;;;5.90;59.68;103069.97;5093180;27;45873;-47
2022/01/26 10:49:30;;;;;;;;;62.00;47.75;;;;;5.91;59.51;103090.03;5060377;28;47161;-47
2022/01/26 10:52:00;;;;;;;;;57.00;42.25;;;;;5.92;59.62;103084.84;5059123;28;45417;-47
2022/01/26 10:54:36;;;;;;;;;59.75;46.00;;;;;5.93;59.75;103068.38;5060180;28;45319;-46
2022/01/26 10:57:09;;;;;;;;;65.00;47.25;;;;;5.96;59.60;103078.97;5043832;28;46373;-47
2022/01/26 10:59:37;;;;;;;;;58.75;46.50;;;;;5.97;59.54;103072.00;5060463;28;46103;-47
2022/01/26 11:02:04;;;;;;;;;57.00;47.00;;;;;6.00;59.50;103070.47;5060384;28;45259;-48
2022/01/26 11:04:33;;;;;;;;;57.00;44.50;;;;;6.02;59.75;103070.53;5050676;28;45452;-49
2022/01/26 11:06:58;;;;;;;;;52.50;41.75;;;;;6.04;59.64;103057.53;5057781;28;45313;-46
2022/01/26 11:09:27;;;;;;;;;58.50;43.25;;;;;6.05;59.67;103062.84;5052833;28;46073;-51
2022/01/26 11:12:04;;;;;;;;;52.25;40.00;;;;;6.07;59.65;103052.44;5059462;28;45977;-51
2022/01/26 11:14:47;;;;;;;;;61.00;47.75;;;;;6.08;59.70;103039.44;5060025;28;45240;-51
2022/01/26 11:17:33;;;;;;;;;57.00;42.00;;;;;6.11;59.76;103046.50;5059663;28;45426;-47
2022/01/26 11:19:59;;;;;;;;;60.50;43.50;;;;;6.09;59.76;103048.16;5059370;28;46345;-48
2022/01/26 11:22:31;;;;;;;;;59.25;46.50;;;;;6.09;59.77;103041.25;5092377;27;45195;-49
2022/01/26 11:25:11;;;;;;;;;60.25;44.25;;;;;6.12;59.67;103041.34;5059531;28;45421;-51
2022/01/26 11:27:39;;;;;;;;;58.75;46.00;;;;;6.14;59.63;103039.69;5059686;28;45464;-52
2022/01/26 11:30:30;;;;;;;;;56.75;45.25;;;;;6.16;59.73;103021.47;5059719;28;45346;-48
2022/01/26 11:33:00;;;;;;;;;55.00;41.00;;;;;6.20;59.73;103031.25;5051989;28;45401;-51
2022/01/26 11:35:29;;;;;;;;;57.75;44.75;;;;;6.22;59.60;103031.31;5059677;28;45474;-50
2022/01/26 11:38:15;;;;;;;;;52.00;38.00;;;;;6.25;59.72;103032.31;5059456;28;45557;-49
2022/01/26 11:46:24;;;;;;;;;60.50;47.75;;;;;6.39;59.38;103017.19;5059900;28;45327;-46
2022/01/26 11:49:00;;;;;;;;;57.75;47.75;;;;;6.43;59.41;103021.69;5058202;28;45552;-51
2022/01/26 11:51:36;;;;;;;;;68.50;53.25;;;;;6.47;59.54;103013.16;5057987;28;45527;-47
2022/01/26 11:54:13;;;;;;;;;69.50;52.75;;;;;6.47;59.45;103000.09;5059502;28;45506;-50
2022/01/26 11:56:39;;;;;;;;;65.50;52.50;;;;;6.52;59.35;102995.06;5059337;28;45335;-53
2022/01/26 11:59:04;;;;;;;;;64.00;50.00;;;;;6.52;59.39;102995.06;5059316;28;45173;-48
2022/01/26 12:01:39;;;;;;;;;73.25;53.75;;;;;6.50;59.41;102984.53;5059048;28;45379;-44
2022/01/26 12:04:16;;;;;;;;;64.25;51.00;;;;;6.52;59.56;102994.16;5059272;28;45255;-47
2022/01/26 12:06:49;;;;;;;;;67.00;52.25;;;;;6.46;59.38;102989.59;5059294;28;45399;-45
2022/01/26 12:09:15;;;;;;;;;68.00;53.00;;;;;6.46;59.11;102984.34;5059070;28;45446;-46
2022/01/26 12:11:40;;;;;;;;;64.00;51.75;;;;;6.44;59.38;102976.47;5058665;28;45248;-44
2022/01/26 12:14:10;;;;;;;;;73.25;57.25;;;;;6.41;59.33;102971.09;5059207;28;45479;-43
2022/01/26 12:16:40;;;;;;;;;71.00;52.25;;;;;6.43;59.45;102989.47;5059114;28;45300;-43
2022/01/26 12:33:52;;;;;;;;;73.75;54.25;;;;;6.33;59.45;102977.78;5058793;28;45265;-56
2022/01/26 12:36:29;;;;;;;;;66.50;51.50;;;;;6.29;59.34;102968.03;5046684;28;45291;-46
2022/01/26 12:39:00;;;;;;;;;68.75;53.50;;;;;6.27;59.17;102973.19;5058730;28;45555;-50
2022/01/26 12:41:33;;;;;;;;;71.00;51.75;;;;;6.26;59.50;102971.41;5058749;28;45446;-46
2022/01/26 12:44:11;;;;;;;;;69.50;54.75;;;;;6.24;59.30;102970.47;5059892;28;46053;-47
2022/01/26 12:46:38;;;;;;;;;66.25;50.25;;;;;6.24;59.25;102980.91;5060963;28;45295;-47
2022/01/26 12:49:10;;;;;;;;;68.25;52.75;;;;;6.21;59.33;102982.50;5061145;28;45366;-49
2022/01/26 12:51:54;;;;;;;;;65.00;50.25;;;;;6.22;59.44;102984.28;5061444;28;46997;-50
2022/01/26 12:54:20;;;;;;;;;72.00;51.25;;;;;6.21;59.38;102988.59;5060842;27;46723;-46
2022/01/26 12:56:46;;;;;;;;;65.50;49.75;;;;;6.20;59.36;102984.25;5058057;28;45335;-45
2022/01/26 12:59:19;;;;;;;;;72.25;54.50;;;;;6.18;59.31;102992.00;5060021;28;45385;-49
2022/01/26 13:01:46;;;;;;;;;70.75;53.00;;;;;6.18;59.29;102973.72;5042635;28;45298;-46
2022/01/26 13:04:13;;;;;;;;;72.75;53.50;;;;;6.17;59.22;102963.22;5061054;28;45371;-49
2022/01/26 13:06:41;;;;;;;;;69.50;55.00;;;;;6.11;59.36;102955.13;5058828;28;45445;-49
2022/01/26 13:09:25;;;;;;;;;72.75;54.75;;;;;6.12;59.20;102965.63;5060842;28;45406;-50
2022/01/26 13:11:52;;;;;;;;;73.00;55.75;;;;;6.09;59.43;102960.31;5061158;28;45495;-49
2022/01/26 13:14:30;;;;;;;;;70.25;54.25;;;;;6.07;59.31;102945.41;5061664;28;45399;-48
2022/01/26 13:17:35;;;;;;;;;68.00;54.50;;;;;6.04;59.45;102948.78;5061436;28;45238;-50
2022/01/26 13:33:53;;;;;;;;;65.75;50.50;;;;;5.95;59.19;102953.59;5035530;28;45738;-50
2022/01/26 13:53:17;;;;;;;;;67.50;51.75;;;;;5.89;59.66;102953.34;5018800;28;45420;-47